.
WxDataArchive / Data Records for 2009-10-08
2009-10-07 October 2009 2009-10-09

Data Records for Thursday, 08 October 2009

Time	Temp	Chill	HIndex	Humid	Dewpt	 Wind 	HiWind	WindDir	Rain 	Barom 
-----	----	-----	------	-----	-----	------	------	-------	-----	----- 
00:00	47.7	47.7	47.7	76	40.5	0	2	248	0.00	30.053 
00:05	47.9	47.9	47.9	75	40.4	0	1	248	0.00	30.053 
00:10	48.0	48.0	48.0	75	40.5	0	3	248	0.00	30.053 
00:15	48.2	48.2	48.2	75	40.7	0	1	248	0.00	30.064 
00:20	48.3	48.3	48.3	74	40.4	0	1	248	0.00	30.064 
00:25	48.3	48.3	48.3	74	40.4	0	2	248	0.00	30.064 
00:30	48.5	48.5	48.5	74	40.6	0	1	248	0.00	30.062 
00:35	48.5	48.5	48.5	74	40.6	0	1	248	0.00	30.062 
00:40	48.5	48.5	48.5	74	40.6	0	1	248	0.00	30.062 
00:45	48.5	48.5	48.5	74	40.6	0	2	248	0.00	30.058 
00:50	48.5	48.5	48.5	74	40.6	0	1	248	0.00	30.058 
00:55	48.5	48.5	48.5	74	40.6	0	2	248	0.00	30.058 
01:00	48.5	48.5	48.5	74	40.6	0	1	248	0.00	30.059 
01:05	48.5	48.5	48.5	74	40.6	0	1	248	0.00	30.059 
01:10	48.3	48.3	48.3	74	40.4	0	1	248	0.00	30.059 
01:15	48.2	48.2	48.2	74	40.3	0	2	248	0.00	30.058 
01:20	48.2	48.2	48.2	75	40.7	0	1	248	0.00	30.058 
01:25	48.2	48.2	48.2	75	40.7	0	1	248	0.00	30.058 
01:30	48.0	48.0	48.0	75	40.5	0	1	248	0.00	30.062 
01:35	48.0	48.0	48.0	76	40.8	0	1	248	0.00	30.062 
01:40	48.0	48.0	48.0	76	40.8	0	1	248	0.00	30.062 
01:45	48.0	48.0	48.0	76	40.8	0	2	248	0.00	30.059 
01:50	48.0	48.0	48.0	76	40.8	0	1	248	0.00	30.059 
01:55	48.0	48.0	48.0	76	40.8	0	1	248	0.00	30.059 
02:00	47.9	47.9	47.9	76	40.7	0	1	248	0.00	30.059 
02:05	47.9	47.9	47.9	76	40.7	0	1	248	0.00	30.059 
02:10	47.7	47.7	47.7	76	40.5	0	1	248	0.00	30.059 
02:15	47.7	47.7	47.7	76	40.5	0	1	248	0.00	30.059 
02:20	47.7	47.7	47.7	76	40.5	0	1	248	0.00	30.059 
02:25	47.7	47.7	47.7	76	40.5	0	1	248	0.00	30.059 
02:30	47.7	47.7	47.7	76	40.5	0	1	248	0.00	30.062 
02:35	47.6	47.6	47.6	77	40.8	0	1	248	0.00	30.062 
02:40	47.4	47.4	47.4	77	40.6	0	0	---	0.00	30.062 
02:45	47.1	47.1	47.1	77	40.3	0	1	248	0.00	30.067 
02:50	46.8	46.8	46.8	78	40.3	0	0	---	0.00	30.067 
02:55	46.7	46.7	46.7	78	40.2	0	1	248	0.00	30.067 
03:00	46.4	46.4	46.4	79	40.2	0	0	---	0.00	30.068 
03:05	46.1	46.1	46.1	80	40.3	0	1	248	0.00	30.068 
03:10	46.0	46.0	46.0	80	40.2	0	0	---	0.00	30.068 
03:15	45.7	45.7	45.7	81	40.2	0	0	---	0.00	30.067 
03:20	45.5	45.5	45.5	81	40.0	0	1	248	0.00	30.067 
03:25	45.4	45.4	45.4	82	40.2	0	1	248	0.00	30.067 
03:30	45.4	45.4	45.4	82	40.2	0	0	---	0.00	30.064 
03:35	45.4	45.4	45.4	82	40.2	0	1	248	0.00	30.064 
03:40	45.4	45.4	45.4	82	40.2	0	1	248	0.00	30.064 
03:45	45.2	45.2	45.2	83	40.3	0	0	---	0.00	30.063 
03:50	45.1	45.1	45.1	83	40.3	0	0	---	0.00	30.063 
03:55	44.9	44.9	44.9	83	40.1	0	0	---	0.00	30.063 
04:00	44.6	44.6	44.6	84	40.1	0	0	---	0.00	30.066 
04:05	44.5	44.5	44.5	84	40.0	0	0	---	0.00	30.066 
04:10	44.3	44.3	44.3	84	39.8	0	0	---	0.00	30.066 
04:15	44.2	44.2	44.2	85	40.0	0	0	---	0.00	30.070 
04:20	44.1	44.1	44.1	85	39.9	0	0	---	0.00	30.070 
04:25	43.9	43.9	43.9	85	39.7	0	0	---	0.00	30.070 
04:30	43.8	43.8	43.8	86	39.9	0	0	---	0.00	30.070 
04:35	43.6	43.6	43.6	86	39.7	0	0	---	0.00	30.070 
04:40	43.5	43.5	43.5	87	39.9	0	0	---	0.00	30.070 
04:45	43.5	43.5	43.5	87	39.9	0	0	---	0.00	30.069 
04:50	43.3	43.3	43.3	88	40.0	0	0	---	0.00	30.069 
04:55	43.3	43.3	43.3	88	40.0	0	0	---	0.00	30.069 
05:00	43.3	43.3	43.3	88	40.0	0	0	---	0.00	30.069 
05:05	43.2	43.2	43.2	88	39.9	0	0	---	0.00	30.069 
05:10	43.2	43.2	43.2	88	39.9	0	0	---	0.00	30.069 
05:15	43.2	43.2	43.2	88	39.9	0	1	248	0.00	30.071 
05:20	43.2	43.2	43.2	88	39.9	0	0	---	0.00	30.071 
05:25	43.1	43.1	43.1	88	39.8	0	0	---	0.00	30.071 
05:30	42.9	42.9	42.9	89	39.9	0	0	---	0.00	30.071 
05:35	42.8	42.8	42.8	89	39.8	0	0	---	0.00	30.071 
05:40	42.6	42.6	42.6	89	39.6	0	0	---	0.00	30.071 
05:45	42.3	42.3	42.3	89	39.3	0	0	---	0.00	30.071 
05:50	42.2	42.2	42.2	89	39.2	0	0	---	0.00	30.071 
05:55	42.1	42.1	42.1	89	39.1	0	0	---	0.00	30.071 
06:00	41.8	41.8	41.8	89	38.8	0	0	---	0.00	30.072 
06:05	41.6	41.6	41.6	89	38.6	0	0	---	0.00	30.072 
06:10	41.5	41.5	41.5	90	38.8	0	0	---	0.00	30.072 
06:15	41.2	41.2	41.2	90	38.5	0	0	---	0.00	30.079 
06:20	41.1	41.1	41.1	90	38.4	0	0	---	0.00	30.079 
06:25	40.9	40.9	40.9	90	38.2	0	0	---	0.00	30.079 
06:30	40.6	40.6	40.6	90	37.9	0	0	---	0.00	30.073 
06:35	40.6	40.6	40.6	91	38.2	0	0	---	0.00	30.073 
06:40	40.5	40.5	40.5	91	38.1	0	0	---	0.00	30.073 
06:45	40.5	40.5	40.5	91	38.1	0	0	---	0.00	30.075 
06:50	40.3	40.3	40.3	91	37.9	0	0	---	0.00	30.075 
06:55	40.3	40.3	40.3	92	38.2	0	0	---	0.00	30.075 
07:00	40.5	40.5	40.5	92	38.4	0	0	---	0.00	30.074 
07:05	40.8	40.8	40.8	92	38.7	0	0	---	0.00	30.074 
07:10	41.1	41.1	41.1	93	39.2	0	0	---	0.00	30.074 
07:15	41.2	41.2	41.2	93	39.3	0	0	---	0.00	30.069 
07:20	41.5	41.5	41.5	93	39.6	0	0	---	0.00	30.069 
07:25	41.6	41.6	41.6	93	39.7	0	0	---	0.00	30.069 
07:30	41.6	41.6	41.6	93	39.7	0	0	---	0.00	30.064 
07:35	41.6	41.6	41.6	93	39.7	0	0	---	0.00	30.064 
07:40	41.8	41.8	41.8	93	39.9	0	0	---	0.00	30.064 
07:45	41.9	41.9	41.9	93	40.0	0	0	---	0.00	30.063 
07:50	42.1	42.1	42.1	93	40.2	0	0	---	0.00	30.063 
07:55	42.1	42.1	42.1	93	40.2	0	0	---	0.00	30.063 
08:00	42.2	42.2	42.2	93	40.3	0	0	---	0.00	30.063 
08:05	42.3	42.3	42.3	93	40.4	0	0	---	0.00	30.063 
08:10	42.5	42.5	42.5	93	40.6	0	0	---	0.00	30.063 
08:15	42.6	42.6	42.6	93	40.7	0	0	---	0.00	30.069 
08:20	42.8	42.8	42.8	93	40.9	0	0	---	0.00	30.069 
08:25	43.1	43.1	43.1	93	41.2	0	0	---	0.00	30.069 
08:30	43.3	43.3	43.3	93	41.4	0	0	---	0.00	30.074 
08:35	43.6	43.6	43.6	93	41.7	0	0	---	0.00	30.074 
08:40	43.9	43.9	43.9	93	42.0	0	0	---	0.00	30.074 
08:45	44.1	44.1	44.1	92	41.9	0	0	---	0.00	30.060 
08:50	44.5	44.5	44.5	92	42.3	0	0	---	0.00	30.060 
08:55	44.8	44.8	44.8	92	42.6	0	1	248	0.00	30.060 
09:00	45.2	45.2	45.2	91	42.7	0	0	---	0.00	30.066 
09:05	45.5	45.5	45.5	90	42.7	0	1	248	0.00	30.066 
09:10	45.8	45.8	45.8	89	42.7	0	0	---	0.00	30.066 
09:15	46.1	46.1	46.1	89	43.0	0	1	248	0.00	30.069 
09:20	46.4	46.4	46.4	88	43.0	0	0	---	0.00	30.069 
09:25	46.5	46.5	46.5	88	43.1	0	0	---	0.00	30.069 
09:30	46.8	46.8	46.8	87	43.1	0	2	248	0.00	30.061 
09:35	47.0	47.0	47.0	87	43.3	0	2	248	0.00	30.061 
09:40	47.3	47.3	47.3	86	43.3	0	1	248	0.00	30.061 
09:45	47.6	47.6	47.6	86	43.6	0	1	248	0.00	30.058 
09:50	47.9	47.9	47.9	85	43.6	0	1	248	0.00	30.058 
09:55	48.2	48.2	48.2	84	43.6	1	3	90	0.00	30.058 
10:00	48.5	48.5	48.5	83	43.6	0	2	90	0.00	30.049 
10:05	48.9	48.9	48.9	83	44.0	0	1	45	0.00	30.049 
10:10	49.2	49.2	49.2	82	43.9	0	1	45	0.00	30.049 
10:15	49.5	49.5	49.5	81	43.9	0	1	45	0.00	30.057 
10:20	49.8	49.8	49.8	81	44.2	0	1	90	0.00	30.057 
10:25	49.9	49.9	49.9	80	44.0	0	2	90	0.00	30.057 
10:30	50.2	50.2	50.2	80	44.3	0	1	90	0.00	30.055 
10:35	50.5	50.5	50.5	80	44.6	0	1	90	0.00	30.055 
10:40	50.7	50.7	50.7	79	44.4	0	1	90	0.00	30.055 
10:45	50.8	50.8	50.8	79	44.5	0	1	68	0.00	30.061 
10:50	51.0	51.0	51.0	79	44.7	0	2	68	0.00	30.061 
10:55	51.1	51.1	51.1	78	44.5	0	1	68	0.00	30.061 
11:00	51.1	51.1	51.1	78	44.5	0	2	45	0.00	30.067 
11:05	51.3	51.3	51.3	78	44.7	0	1	45	0.00	30.067 
11:10	51.4	51.4	51.4	77	44.4	0	2	270	0.00	30.067 
11:15	51.4	51.4	51.4	77	44.4	0	3	270	0.00	30.068 
11:20	51.6	51.6	51.6	77	44.6	0	3	112	0.00	30.068 
11:25	51.7	51.7	51.7	77	44.7	0	2	202	0.00	30.068 
11:30	51.9	51.9	51.9	77	44.9	1	2	248	0.00	30.068 
11:35	52.2	52.2	52.2	77	45.2	0	2	248	0.00	30.068 
11:40	52.3	52.3	52.3	76	45.0	0	1	22	0.00	30.068 
11:45	52.8	52.8	52.8	76	45.4	0	2	22	0.00	30.055 
11:50	53.2	53.2	53.2	76	45.8	0	3	225	0.00	30.055 
11:55	53.6	53.6	53.6	74	45.5	0	3	248	0.00	30.055 
12:00	54.1	54.1	54.1	73	45.6	1	3	270	0.00	30.052 
12:05	54.4	54.4	54.4	72	45.6	1	3	270	0.00	30.052 
12:10	54.4	54.4	54.4	71	45.2	1	3	270	0.00	30.052 
12:15	54.5	54.5	54.5	72	45.7	1	3	270	0.00	30.062 
12:20	54.4	54.4	54.4	71	45.2	1	3	248	0.00	30.062 
12:25	54.4	54.4	54.4	71	45.2	1	4	248	0.00	30.062 
12:30	54.5	54.5	54.5	71	45.3	1	5	248	0.00	30.071 
12:35	54.5	54.5	54.5	71	45.3	2	5	248	0.00	30.071 
12:40	54.4	54.4	54.4	71	45.2	1	4	248	0.00	30.071 
12:45	54.4	54.4	54.4	72	45.6	1	5	248	0.00	30.072 
12:50	54.2	54.2	54.2	73	45.7	1	5	248	0.00	30.072 
12:55	54.1	54.1	54.1	75	46.4	1	4	292	0.00	30.072 
13:00	53.8	53.8	53.8	74	45.7	1	4	248	0.00	30.076 
13:05	53.6	53.6	53.6	75	45.9	1	3	270	0.00	30.076 
13:10	53.5	53.5	53.5	76	46.1	1	6	225	0.00	30.076 
13:15	53.3	53.3	53.3	76	45.9	1	4	225	0.00	30.059 
13:20	53.2	53.2	53.2	76	45.8	2	5	248	0.00	30.059 
13:25	53.1	53.1	53.1	77	46.1	1	3	248	0.00	30.059 
13:30	53.1	53.1	53.1	77	46.1	1	5	270	0.00	30.049 
13:35	52.9	52.9	52.9	78	46.2	1	4	248	0.00	30.049 
13:40	52.8	52.8	52.8	78	46.1	0	2	248	0.00	30.049 
13:45	52.6	52.6	52.6	80	46.6	1	3	248	0.00	30.037 
13:50	52.5	52.5	52.5	81	46.8	0	2	248	0.00	30.037 
13:55	52.5	52.5	52.5	82	47.2	0	2	270	0.00	30.037 
14:00	52.3	52.3	52.3	82	47.0	0	0	---	0.00	30.026 
14:05	52.2	52.2	52.2	83	47.2	0	1	270	0.01	30.026 
14:10	52.2	52.2	52.2	84	47.5	0	1	270	0.00	30.026 
14:15	52.0	52.0	52.0	85	47.6	0	1	270	0.00	30.018 
14:20	51.9	51.9	51.9	86	47.8	0	1	270	0.01	30.018 
14:25	51.7	51.7	51.7	86	47.6	0	2	270	0.00	30.018 
14:30	51.4	51.4	51.4	87	47.7	0	1	270	0.00	30.009 
14:35	51.4	51.4	51.4	87	47.7	0	1	270	0.00	30.009 
14:40	51.4	51.4	51.4	88	48.0	0	1	270	0.00	30.009 
14:45	51.6	51.6	51.6	88	48.2	0	1	270	0.00	30.006 
14:50	51.7	51.7	51.7	88	48.3	0	0	---	0.00	30.006 
14:55	51.7	51.7	51.7	88	48.3	0	1	270	0.00	30.006 
15:00	51.6	51.6	51.6	88	48.2	0	0	---	0.00	30.016 
15:05	51.4	51.4	51.4	88	48.0	0	0	---	0.00	30.016 
15:10	51.4	51.4	51.4	88	48.0	0	1	270	0.00	30.016 
15:15	51.4	51.4	51.4	88	48.0	0	1	270	0.00	30.009 
15:20	51.3	51.3	51.3	88	47.9	0	0	---	0.00	30.009 
15:25	51.3	51.3	51.3	88	47.9	0	0	---	0.00	30.009 
15:30	51.1	51.1	51.1	88	47.7	0	1	270	0.00	30.000 
15:35	50.8	50.8	50.8	88	47.4	0	1	270	0.01	30.000 
15:40	50.7	50.7	50.7	89	47.6	0	1	270	0.02	30.000 
15:45	50.4	50.4	50.4	89	47.3	0	1	270	0.02	30.009 
15:50	50.4	50.4	50.4	90	47.6	0	0	---	0.01	30.009 
15:55	50.4	50.4	50.4	91	47.9	0	0	---	0.01	30.009 
16:00	50.4	50.4	50.4	91	47.9	0	0	---	0.00	30.009 
16:05	50.4	50.4	50.4	91	47.9	0	0	---	0.01	30.009 
16:10	50.4	50.4	50.4	92	48.2	0	0	---	0.00	30.009 
16:15	50.4	50.4	50.4	92	48.2	0	0	---	0.00	30.010 
16:20	50.4	50.4	50.4	92	48.2	0	0	---	0.01	30.010 
16:25	50.4	50.4	50.4	92	48.2	0	1	270	0.00	30.010 
16:30	50.5	50.5	50.5	93	48.6	0	2	270	0.00	29.984 
16:35	50.5	50.5	50.5	93	48.6	0	1	270	0.00	29.984 
16:40	50.5	50.5	50.5	93	48.6	0	2	270	0.00	29.984 
16:45	50.5	50.5	50.5	93	48.6	0	0	---	0.00	29.982 
16:50	50.7	50.7	50.7	93	48.7	0	1	270	0.00	29.982 
16:55	50.7	50.7	50.7	93	48.7	0	0	---	0.00	29.982 
17:00	50.7	50.7	50.7	93	48.7	0	1	270	0.01	29.991 
17:05	50.7	50.7	50.7	94	49.0	0	2	270	0.00	29.991 
17:10	50.7	50.7	50.7	94	49.0	1	3	90	0.00	29.991 
17:15	50.7	50.7	50.7	94	49.0	1	3	90	0.00	29.967 
17:20	50.7	50.7	50.7	94	49.0	1	3	112	0.01	29.967 
17:25	50.7	50.7	50.7	94	49.0	0	2	112	0.00	29.967 
17:30	50.8	50.8	50.8	94	49.1	2	4	68	0.00	29.947 
17:35	50.7	50.7	50.7	94	49.0	1	3	90	0.01	29.947 
17:40	50.7	50.7	50.7	95	49.3	0	2	112	0.00	29.947 
17:45	50.7	50.7	50.7	95	49.3	1	3	112	0.00	29.962 
17:50	50.7	50.7	50.7	95	49.3	0	3	112	0.00	29.962 
17:55	50.7	50.7	50.7	95	49.3	0	2	112	0.00	29.962 
18:00	50.7	50.7	50.7	95	49.3	0	2	112	0.00	29.961 
18:05	50.8	50.8	50.8	95	49.4	0	5	90	0.00	29.961 
18:10	50.8	50.8	50.8	95	49.4	0	0	---	0.00	29.961 
18:15	50.8	50.8	50.8	95	49.4	0	2	90	0.00	29.960 
18:20	50.8	50.8	50.8	95	49.4	0	3	90	0.00	29.960 
18:25	50.8	50.8	50.8	95	49.4	0	2	90	0.00	29.960 
18:30	50.8	50.8	50.8	95	49.4	0	1	90	0.00	29.953 
18:35	50.8	50.8	50.8	95	49.4	0	1	90	0.01	29.953 
18:40	50.8	50.8	50.8	95	49.4	0	2	90	0.00	29.953 
18:45	50.8	50.8	50.8	95	49.4	0	3	90	0.00	29.952 
18:50	50.8	50.8	50.8	95	49.4	0	1	90	0.00	29.952 
18:55	50.8	50.8	50.8	95	49.4	1	2	90	0.00	29.952 
19:00	50.8	50.8	50.8	95	49.4	0	0	---	0.00	29.956 
19:05	50.8	50.8	50.8	95	49.4	0	1	90	0.00	29.956 
19:10	50.7	50.7	50.7	95	49.3	0	0	---	0.00	29.956 
19:15	50.8	50.8	50.8	95	49.4	0	0	---	0.00	29.964 
19:20	50.8	50.8	50.8	95	49.4	0	0	---	0.00	29.964 
19:25	50.8	50.8	50.8	95	49.4	0	1	90	0.00	29.964 
19:30	50.8	50.8	50.8	95	49.4	0	0	---	0.00	29.971 
19:35	50.8	50.8	50.8	96	49.7	0	0	---	0.00	29.971 
19:40	50.8	50.8	50.8	96	49.7	0	0	---	0.00	29.971 
19:45	50.8	50.8	50.8	96	49.7	0	0	---	0.01	29.979 
19:50	50.8	50.8	50.8	96	49.7	0	2	90	0.01	29.979 
19:55	50.8	50.8	50.8	96	49.7	0	1	90	0.01	29.979 
20:00	50.8	50.8	50.8	96	49.7	0	2	90	0.00	29.964 
20:05	50.8	50.8	50.8	96	49.7	0	1	90	0.01	29.964 
20:10	50.8	50.8	50.8	96	49.7	0	1	90	0.01	29.964 
20:15	50.8	50.8	50.8	96	49.7	0	1	90	0.00	29.959 
20:20	50.8	50.8	50.8	96	49.7	0	1	90	0.00	29.959 
20:25	50.8	50.8	50.8	96	49.7	0	1	68	0.01	29.959 
20:30	50.8	50.8	50.8	96	49.7	0	2	68	0.00	29.950 
20:35	50.7	50.7	50.7	96	49.6	0	2	135	0.00	29.950 
20:40	50.7	50.7	50.7	96	49.6	0	1	135	0.00	29.950 
20:45	50.7	50.7	50.7	96	49.6	0	2	135	0.01	29.951 
20:50	50.5	50.5	50.5	96	49.4	0	2	158	0.00	29.951 
20:55	50.4	50.4	50.4	96	49.3	1	3	90	0.00	29.951 
21:00	50.4	50.4	50.4	96	49.3	0	3	112	0.01	29.932 
21:05	50.2	50.2	50.2	96	49.1	1	3	112	0.00	29.932 
21:10	50.2	50.2	50.2	96	49.1	1	3	45	0.00	29.932 
21:15	50.1	50.1	50.1	96	49.0	0	2	112	0.00	29.921 
21:20	50.1	50.1	50.1	96	49.0	0	1	112	0.00	29.921 
21:25	50.1	50.1	50.1	96	49.0	0	1	112	0.00	29.921 
21:30	50.1	50.1	50.1	96	49.0	0	0	---	0.00	29.926 
21:35	50.1	50.1	50.1	96	49.0	0	1	112	0.00	29.926 
21:40	50.1	50.1	50.1	96	49.0	0	0	---	0.00	29.926 
21:45	50.1	50.1	50.1	96	49.0	0	1	112	0.00	29.906 
21:50	50.1	50.1	50.1	96	49.0	0	1	112	0.00	29.906 
21:55	50.1	50.1	50.1	96	49.0	0	1	112	0.00	29.906 
22:00	50.1	50.1	50.1	96	49.0	0	0	---	0.00	29.922 
22:05	50.1	50.1	50.1	96	49.0	0	0	---	0.00	29.922 
22:10	50.1	50.1	50.1	96	49.0	0	0	---	0.00	29.922 
22:15	50.1	50.1	50.1	96	49.0	0	1	112	0.00	29.911 
22:20	50.1	50.1	50.1	96	49.0	0	0	---	0.00	29.911 
22:25	50.2	50.2	50.2	96	49.1	0	0	---	0.00	29.911 
22:30	50.2	50.2	50.2	96	49.1	0	1	112	0.00	29.896 
22:35	50.2	50.2	50.2	96	49.1	0	1	112	0.00	29.896 
22:40	50.2	50.2	50.2	96	49.1	0	0	---	0.00	29.896 
22:45	50.2	50.2	50.2	96	49.1	0	0	---	0.00	29.914 
22:50	50.2	50.2	50.2	96	49.1	0	0	---	0.00	29.914 
22:55	50.2	50.2	50.2	96	49.1	0	0	---	0.00	29.914 
23:00	50.2	50.2	50.2	96	49.1	0	0	---	0.00	29.911 
23:05	50.4	50.4	50.4	96	49.3	0	0	---	0.00	29.911 
23:10	50.4	50.4	50.4	96	49.3	0	0	---	0.00	29.911 
23:15	50.4	50.4	50.4	96	49.3	0	0	---	0.01	29.909 
23:20	50.4	50.4	50.4	96	49.3	0	0	---	0.00	29.909 
23:25	50.4	50.4	50.4	96	49.3	0	0	---	0.00	29.909 
23:30	50.4	50.4	50.4	96	49.3	0	0	---	0.00	29.921 
23:35	50.4	50.4	50.4	96	49.3	0	0	---	0.00	29.921 
23:40	50.4	50.4	50.4	96	49.3	0	0	---	0.00	29.921 
23:45	50.4	50.4	50.4	96	49.3	0	0	---	0.00	29.920 
23:50	50.4	50.4	50.4	96	49.3	0	0	---	0.01	29.920 
23:55	50.4	50.4	50.4	96	49.3	0	0	---	0.00	29.920 

CoCoRaHS
IN-AL-39
A2 Web Hosting
Creative Commons License
GoDaddy
search engine by freefind advanced

loaded 2018-11-17 19:00:18 • last modified 2010-11-18 10:43:29
Privacy PolicyDisclaimer
• wx.awcolley.com is powered by PmWiki v.2002016 •
• all content (unless otherwise noted) © 2018 A W Colley